HEIS

Ismailia Airport

Ismailia, Egypt
METAR HEIS 250500Z 33003KT 9999 FEW025 25/20 Q1011
Observed Flight Rules
Jun-25 @ 05:00 UTC (an hour ago) Visual Flight Rules
Wind Visibility Clouds
330° at 3 knots 10,000+ meters
  • Few at 2,500' AGL
Temperatures Readings
Current 25°C / 77°F
Dewpoint 20°C / 68°F
Humidity 74%
Altimeter 29.85" Hg
Pressure 1011 hPa
Elevation 3
METAR HEIS 250500Z 33003KT 9999 FEW025 25/20 Q1011
Observed Flight Rules
Jun-25 @ 05:00 UTC
(an hour ago)
VFR
Wind Visibility
330° at 3 knots 10,000+ meters
Clouds
  • Few at 2,500' AGL
Temperature Dewpoint
25°C / 77°F 20°C / 68°F
Humidity Altimeter Pressure
74% 29.85" Hg 1011 hPa